createdAt,value
2018-10-01T00:08:13.065Z,5.90
2018-10-01T00:18:16.660Z,7.17
2018-10-01T00:28:20.316Z,5.43
2018-10-01T00:38:23.959Z,5.00
2018-10-01T00:48:28.311Z,6.03
2018-10-01T00:58:32.381Z,6.23
2018-10-01T01:08:35.994Z,6.17
2018-10-01T01:18:39.595Z,5.83
2018-10-01T01:28:43.251Z,6.23
2018-10-01T01:38:46.853Z,5.47
2018-10-01T01:48:51.034Z,5.50
2018-10-01T01:58:54.634Z,6.10
2018-10-01T02:08:58.751Z,6.50
2018-10-01T02:19:03.704Z,6.23
2018-10-01T02:29:11.458Z,7.33
2018-10-01T02:39:15.623Z,6.70
2018-10-01T02:49:19.847Z,7.22
2018-10-01T02:59:23.454Z,6.50
2018-10-01T03:09:28.053Z,6.33
2018-10-01T03:19:33.009Z,5.80
2018-10-01T03:29:37.996Z,5.53
2018-10-01T03:39:42.062Z,6.00
2018-10-01T03:49:50.057Z,4.70
2018-10-01T03:59:53.618Z,4.43
2018-10-01T04:09:57.150Z,3.63
2018-10-01T04:20:00.682Z,3.37
2018-10-01T04:30:05.107Z,2.43
2018-10-01T04:40:08.639Z,2.70
2018-10-01T04:50:12.226Z,2.63
2018-10-01T05:00:15.949Z,1.80
2018-10-01T05:10:19.481Z,2.20
2018-10-01T05:20:23.190Z,2.50
2018-10-01T05:30:26.786Z,2.00
2018-10-01T05:40:36.668Z,1.83
2018-10-01T05:50:40.265Z,1.50
2018-10-01T06:00:43.812Z,1.80
2018-10-01T06:10:47.374Z,2.00
2018-10-01T06:20:51.433Z,2.30
2018-10-01T06:30:55.009Z,2.27
2018-10-01T06:40:58.566Z,2.70
2018-10-01T06:51:02.106Z,2.83
2018-10-01T07:01:05.985Z,2.60
2018-10-01T07:11:09.662Z,2.43
2018-10-01T07:21:13.846Z,2.10
2018-10-01T07:31:18.084Z,2.20
2018-10-01T07:41:21.630Z,1.90
2018-10-01T07:51:25.321Z,2.03
2018-10-01T08:01:28.979Z,1.70
2018-10-01T08:11:32.985Z,2.17
2018-10-01T08:21:37.935Z,1.83
2018-10-01T08:31:41.509Z,2.50
2018-10-01T08:41:45.152Z,1.90
2018-10-01T08:51:56.822Z,2.30
2018-10-01T09:02:01.339Z,2.00
2018-10-01T09:12:04.920Z,1.70
2018-10-01T09:22:14.307Z,1.80
2018-10-01T09:32:18.055Z,1.57
2018-10-01T09:42:21.760Z,1.73
2018-10-01T09:52:25.443Z,1.40
2018-10-01T10:02:28.951Z,1.80
2018-10-01T10:12:32.649Z,2.00
2018-10-01T10:22:36.298Z,1.30
2018-10-01T10:32:39.954Z,1.67
2018-10-01T10:42:43.490Z,1.20
2018-10-01T10:52:47.109Z,0.80
2018-10-01T11:02:50.827Z,1.00
2018-10-01T11:12:55.126Z,1.00
2018-10-01T11:22:58.950Z,1.67
2018-10-01T11:33:02.598Z,1.93
2018-10-01T11:43:06.179Z,2.10
2018-10-01T11:53:09.747Z,2.10
2018-10-01T12:03:14.284Z,2.37
2018-10-01T12:13:17.915Z,2.23
2018-10-01T12:23:21.625Z,1.97
2018-10-01T12:33:25.179Z,2.77
2018-10-01T12:43:28.957Z,2.43
2018-10-01T12:53:32.535Z,3.13
2018-10-01T13:03:36.210Z,2.80
2018-10-01T13:13:40.195Z,2.80
2018-10-01T13:23:48.000Z,2.93
2018-10-01T13:33:51.652Z,2.80
2018-10-01T13:43:56.563Z,2.37
2018-10-01T13:54:00.709Z,2.70
2018-10-01T14:04:04.271Z,2.40
2018-10-01T14:14:12.028Z,2.00
2018-10-01T14:24:16.387Z,2.20
2018-10-01T14:34:19.957Z,1.40
2018-10-01T14:44:23.526Z,1.60
2018-10-01T14:54:28.104Z,1.27
2018-10-01T15:04:31.671Z,1.70
2018-10-01T15:14:39.825Z,1.87
2018-10-01T15:24:43.412Z,1.80
2018-10-01T15:35:14.339Z,2.03
2018-10-01T15:45:18.119Z,2.00
2018-10-01T15:55:21.722Z,2.50
2018-10-01T16:05:25.322Z,1.93
2018-10-01T16:15:29.403Z,1.73
2018-10-01T16:25:33.729Z,1.72
2018-10-01T16:35:37.428Z,1.87
2018-10-01T16:45:41.138Z,2.13
2018-10-01T16:55:45.551Z,2.50
2018-10-01T17:05:49.219Z,2.47
2018-10-01T17:15:54.438Z,2.43
2018-10-01T17:25:58.131Z,1.73
2018-10-01T17:36:01.708Z,1.87
2018-10-01T17:46:09.100Z,2.37
2018-10-01T17:56:12.775Z,2.20
2018-10-01T18:06:16.442Z,2.20
2018-10-01T18:16:20.011Z,2.50
2018-10-01T18:26:23.594Z,2.77
2018-10-01T18:36:27.146Z,2.57
2018-10-01T18:46:30.820Z,2.60
2018-10-01T18:56:34.628Z,2.67
2018-10-01T19:06:38.355Z,3.07
2018-10-01T19:16:42.145Z,4.13
2018-10-01T19:26:47.662Z,4.53
2018-10-01T19:36:55.751Z,3.90
2018-10-01T19:49:24.003Z,3.20
2018-10-01T19:59:27.628Z,3.53
2018-10-01T20:09:37.553Z,4.50
2018-10-01T20:19:41.774Z,3.60
2018-10-01T20:29:45.285Z,2.67
2018-10-01T20:39:49.170Z,3.63
2018-10-01T20:49:52.628Z,3.10
2018-10-01T20:59:59.654Z,2.77
2018-10-01T21:10:03.040Z,2.30
2018-10-01T21:20:06.438Z,2.50
2018-10-01T21:30:09.782Z,2.33
2018-10-01T21:40:14.079Z,2.17
2018-10-01T21:50:17.424Z,2.20
2018-10-01T22:00:20.786Z,1.83
2018-10-01T22:10:24.191Z,2.40
2018-10-01T22:20:31.510Z,2.43
2018-10-01T22:30:34.902Z,1.90
2018-10-01T22:40:38.241Z,1.87
2018-10-01T22:50:41.654Z,2.07
2018-10-01T23:00:45.039Z,2.07
2018-10-01T23:10:48.402Z,2.13
2018-10-01T23:20:51.759Z,2.23
2018-10-01T23:30:55.165Z,1.87
2018-10-01T23:40:58.578Z,2.40
2018-10-01T23:51:09.716Z,2.40
